Weather at Transener S.A. Heliport

Public forecast

Using degrees Celsius for public forecast. Weather courtesy of forecast.io.

Closest aviation weather report (METAR) to Transener S.A. Heliport

Closest report is El Plumerillo Airport, 19.2 nm (35.6 km) NNW. Retrieved 2020/09/22 23:00 UTC (28 minutes ago):

SAME 222300Z 00000KT CAVOK 22/04 Q1014

Closest aviation forecast (TAF) to Transener S.A. Heliport

Closest forecast is El Plumerillo Airport, 19.2 nm (35.6 km) NNW. Retrieved 2020/09/22 18:00 UTC (5 hours ago):

TAF SAME 221700Z 2218/2318 VRB03KT CAVOK TX27/2220Z TN11/2310Z BECMG 2310/2312 16010KT